Ida, Louisiana
Current Conditions -  °F | °C
As of 2:53 PM on Thursday 20 Nov 2014 (Local Time) from KTXK Reporting Station
Haze Haze  
Wind Chill: 56°   Ceiling: Unl
Heat Index: 56°   Visibility: 6mi
Dew Point: 50°   Wind: 6mph
Humidity: 80%   Direction: 100°E
Pressure: 30.11"   Gusts: NA
Location:  33°N, 93.89°W
Report Text: KTXK 202053Z 10005KT 6SM HZ FEW050 13/10 A3011 RMK AO2 SLP195 T01330100 56028
Loading
Personal Weather Stations






























Interactive Weather Map New forecast layout! Learn more

10-Day Weather Forecast

Advertisements
Track Severe Weather on mobile